Renaissance — FLSE — position and weather

sailwx.info

Track history (hours):
 
Tides and Currents Weather Stations Pressure Air Temp Water Temp Dewpoint Dewpoint Depression Visibility Wind Speed Wind Dir Waves Ship Positions

Renaissance

Last reported at 2017-Oct-10 13:05 UTC. Time now 2017-Oct-19 22:01 UTC.
Position N 47°43' W 003°22'.
Warning: this ship's position is 9 days out of date.

Length 16 m.

Type: Dredging. MMSI: 228333600.

Date/timePositionNaut miles runAvg speedWind from/ knotsBaromVisibWave heightAir tempDewpointWater temp
2017-Oct-10 13:05N 47°43' W 003°22'0 0.1
2017-Oct-10 12:59N 47°43' W 003°22'0 0.1
2017-Oct-10 12:29N 47°43' W 003°22'1 2.2
2017-Oct-10 12:00N 47°42' W 003°22'2 3.4
2017-Oct-10 11:30N 47°40' W 003°22'2 3.6
2017-Oct-10 11:00N 47°39' W 003°22'1 2.3
2017-Oct-10 10:30N 47°37' W 003°22'2 3.9
2017-Oct-10 10:00N 47°36' W 003°21'2 3.6
2017-Oct-10 09:30N 47°34' W 003°20'2 3.6
2017-Oct-10 09:00N 47°32' W 003°19'2 4.2
2017-Oct-10 08:28N 47°30' W 003°18'2 4.7
2017-Oct-10 08:00N 47°28' W 003°16'2 4.1
2017-Oct-10 07:29N 47°26' W 003°15'2 3.3
2017-Oct-10 06:56N 47°24' W 003°14'12 0.5
2017-Oct-09 08:39N 47°30' W 002°58'1 4.0
2017-Oct-09 08:31N 47°30' W 002°57'2 4.0
2017-Oct-09 07:54N 47°32' W 002°55'  
2017-Oct-06 15:47N 47°32' W 002°54'10 2.7
2017-Oct-06 12:16N 47°27' W 003°06'2 6.0
2017-Oct-06 11:58N 47°28' W 003°08'3 6.0
2017-Oct-06 11:30N 47°30' W 003°11'3 5.1
2017-Oct-06 11:00N 47°32' W 003°12'3 5.3
2017-Oct-06 10:30N 47°35' W 003°14'2 3.5
2017-Oct-06 10:00N 47°36' W 003°14'2 4.1
2017-Oct-06 09:30N 47°38' W 003°16'2 4.9
2017-Oct-06 09:00N 47°39' W 003°19'2 3.9
2017-Oct-06 08:30N 47°40' W 003°22'2 3.2
2017-Oct-06 08:01N 47°42' W 003°22'1 2.7
2017-Oct-06 07:29N 47°43' W 003°22'  
Track history (hours):
 
Tides and Currents Weather Stations Pressure Air Temp Water Temp Dewpoint Dewpoint Depression Visibility Wind Speed Wind Dir Waves Ship Positions

Renaissance

Last reported at 2017-Oct-10 13:05 UTC. Time now 2017-Oct-19 22:01 UTC.
Position N 47°43' W 003°22'.
Warning: this ship's position is 9 days out of date.

Length 16 m.

Type: Dredging. MMSI: 228333600.

Date/timePositionNaut miles runAvg speedWind from/ knotsBaromVisibWave heightAir tempDewpointWater temp
2017-Oct-10 13:05N 47°43' W 003°22'0 0.1
2017-Oct-10 12:59N 47°43' W 003°22'0 0.1
2017-Oct-10 12:29N 47°43' W 003°22'1 2.2
2017-Oct-10 12:00N 47°42' W 003°22'2 3.4
2017-Oct-10 11:30N 47°40' W 003°22'2 3.6
2017-Oct-10 11:00N 47°39' W 003°22'1 2.3
2017-Oct-10 10:30N 47°37' W 003°22'2 3.9
2017-Oct-10 10:00N 47°36' W 003°21'2 3.6
2017-Oct-10 09:30N 47°34' W 003°20'2 3.6
2017-Oct-10 09:00N 47°32' W 003°19'2 4.2
2017-Oct-10 08:28N 47°30' W 003°18'2 4.7
2017-Oct-10 08:00N 47°28' W 003°16'2 4.1
2017-Oct-10 07:29N 47°26' W 003°15'2 3.3
2017-Oct-10 06:56N 47°24' W 003°14'12 0.5
2017-Oct-09 08:39N 47°30' W 002°58'1 4.0
2017-Oct-09 08:31N 47°30' W 002°57'2 4.0
2017-Oct-09 07:54N 47°32' W 002°55'  
2017-Oct-06 15:47N 47°32' W 002°54'10 2.7
2017-Oct-06 12:16N 47°27' W 003°06'2 6.0
2017-Oct-06 11:58N 47°28' W 003°08'3 6.0
2017-Oct-06 11:30N 47°30' W 003°11'3 5.1
2017-Oct-06 11:00N 47°32' W 003°12'3 5.3
2017-Oct-06 10:30N 47°35' W 003°14'2 3.5
2017-Oct-06 10:00N 47°36' W 003°14'2 4.1
2017-Oct-06 09:30N 47°38' W 003°16'2 4.9
2017-Oct-06 09:00N 47°39' W 003°19'2 3.9
2017-Oct-06 08:30N 47°40' W 003°22'2 3.2
2017-Oct-06 08:01N 47°42' W 003°22'1 2.7
2017-Oct-06 07:29N 47°43' W 003°22'  

Dump ship's entire track history